createdAt,value
2022-08-17T00:01:03.199Z,16867.08008
2022-08-17T00:16:06.697Z,14506.79395
2022-08-17T00:31:08.898Z,6450.80273
2022-08-17T00:46:11.096Z,12427.60938
2022-08-17T01:01:21.294Z,3484.6936
2022-08-17T01:16:24.176Z,2081.12305
2022-08-17T01:31:26.401Z,857.84528
2022-08-17T01:46:28.574Z,594.19116
2022-08-17T02:01:30.837Z,506.95264
2022-08-17T02:16:36.624Z,347.01538
2022-08-17T02:31:39.781Z,271.40869
2022-08-17T02:46:41.970Z,179.32359
2022-08-17T03:01:44.270Z,70.76012
2022-08-17T03:16:46.713Z,17.4477
2022-08-17T03:31:49.775Z,1.93863
2022-08-17T03:46:52.116Z,0
2022-08-17T04:01:54.473Z,0
2022-08-17T04:16:56.727Z,0
2022-08-17T04:31:58.969Z,0
2022-08-17T04:47:01.168Z,0
2022-08-17T05:02:03.511Z,0
2022-08-17T05:17:07.336Z,0
2022-08-17T05:32:38.288Z,0
2022-08-17T05:47:43.884Z,0
2022-08-17T06:02:47.979Z,0
2022-08-17T06:17:50.456Z,0
2022-08-17T06:32:52.897Z,0
2022-08-17T06:47:55.154Z,0
2022-08-17T07:02:57.557Z,0
2022-08-17T07:18:00.121Z,0
2022-08-17T07:33:02.635Z,0
2022-08-17T07:48:04.853Z,0
2022-08-17T08:03:07.497Z,0
2022-08-17T08:18:09.865Z,0
2022-08-17T08:33:12.151Z,0
2022-08-17T08:48:23.111Z,0
2022-08-17T09:04:10.935Z,0
2022-08-17T09:19:22.269Z,0
2022-08-17T09:34:28.158Z,0
2022-08-17T09:49:34.430Z,0
2022-08-17T10:04:36.655Z,0
2022-08-17T10:19:39.990Z,0
2022-08-17T10:34:46.664Z,0
2022-08-17T10:49:48.873Z,0
2022-08-17T11:04:51.073Z,0
2022-08-17T11:19:53.285Z,0
2022-08-17T11:34:55.466Z,0
2022-08-17T11:49:57.702Z,0
2022-08-17T12:04:59.960Z,0
2022-08-17T12:20:03.035Z,1.93863
2022-08-17T12:35:06.887Z,17.4477
2022-08-17T12:50:29.824Z,70.76012
2022-08-17T13:05:32.479Z,159.93726
2022-08-17T13:20:34.712Z,254.9303
2022-08-17T13:35:39.947Z,354.76993
2022-08-17T13:50:42.793Z,821.98059
2022-08-17T14:05:44.971Z,4966.77881
2022-08-17T14:20:47.202Z,3579.68677
2022-08-17T14:35:49.416Z,4856.27686
2022-08-17T14:50:51.656Z,2143.15918
2022-08-17T15:05:53.869Z,1462.69897
2022-08-17T15:20:56.109Z,1835.88586
2022-08-17T15:35:58.332Z,4496.66016
2022-08-17T15:51:00.648Z,4617.82471
2022-08-17T16:06:02.900Z,6223.01318
2022-08-17T16:21:05.285Z,6245.30762
2022-08-17T16:36:07.502Z,5586.17236
2022-08-17T16:51:09.710Z,5465.97705
2022-08-17T17:06:12.087Z,5584.2334
2022-08-17T17:21:14.334Z,4986.16504
2022-08-17T17:36:16.589Z,5330.27246
2022-08-17T17:52:05.247Z,5059.8335
2022-08-17T18:07:13.635Z,5542.55322
2022-08-17T18:22:15.870Z,5427.2041
2022-08-17T18:37:19.512Z,5495.05664
2022-08-17T18:52:21.790Z,5414.60303
2022-08-17T19:07:24.048Z,5176.15137
2022-08-17T19:22:28.774Z,5059.8335
2022-08-17T19:37:31.392Z,5623.00635
2022-08-17T19:52:33.625Z,5928.34131
2022-08-17T20:07:35.888Z,5432.05078
2022-08-17T20:22:50.398Z,4706.03271
2022-08-17T20:37:54.756Z,4612.00879
2022-08-17T20:52:56.952Z,4481.15137
2022-08-17T21:07:59.420Z,4644.96582
2022-08-17T21:23:01.724Z,5801.36035
2022-08-17T21:38:03.966Z,6972.29541
2022-08-17T21:53:06.367Z,8557.12793
2022-08-17T22:08:08.570Z,10243.73926
2022-08-17T22:23:19.110Z,11856.68262
2022-08-17T22:38:21.311Z,13100.31543
2022-08-17T22:53:23.570Z,13837.96582
2022-08-17T23:08:25.847Z,14468.02148
2022-08-17T23:23:28.053Z,15383.05664
2022-08-17T23:38:30.297Z,16458.0293
2022-08-17T23:53:32.637Z,16841.87891
